Time;durP1;ratioP1;P1;durP2;ratioP2;P2;SDS_P1;SDS_P2;PMS_P1;PMS_P2;Temp;Humidity;BMP_temperature;BMP_pressure;BME280_temperature;BME280_humidity;BME280_pressure;Samples;Min_cycle;Max_cycle;Signal;HPM_P1;HPM_P2
2021/08/05 00:00:26;;;;;;;;;;;;;;;21.88;88.03;99566.69;5013106;28;819;-61
2021/08/05 00:02:52;;;;;;;;;;;;;;;21.94;87.66;99567.56;5013069;28;827;-61
2021/08/05 00:05:19;;;;;;;;;;;;;;;21.92;87.47;99560.88;5012943;28;866;-61
2021/08/05 00:07:47;;;;;;;;;;;;;;;21.90;87.98;99555.75;5013014;28;881;-61
2021/08/05 00:10:14;;;;;;;;;;;;;;;21.94;88.09;99559.13;5012811;28;858;-61
2021/08/05 00:12:41;;;;;;;;;;;;;;;22.01;88.04;99558.72;5012902;28;846;-61
2021/08/05 00:15:08;;;;;;;;;;;;;;;22.05;87.72;99547.28;5012744;28;1094;-62
2021/08/05 00:17:35;;;;;;;;;;;;;;;22.06;87.77;99550.84;5012706;28;815;-61
2021/08/05 00:20:03;;;;;;;;;;;;;;;22.06;87.74;99550.84;5012810;28;814;-61
2021/08/05 00:22:29;;;;;;;;;;;;;;;22.07;88.05;99547.56;5012563;28;1058;-61
2021/08/05 00:24:56;;;;;;;;;;;;;;;22.13;88.10;99542.78;5012563;28;874;-61
2021/08/05 00:27:23;;;;;;;;;;;;;;;22.15;87.66;99548.72;5012570;28;874;-61
2021/08/05 00:29:50;;;;;;;;;;;;;;;22.16;87.86;99546.66;5012472;28;831;-61
2021/08/05 00:32:17;;;;;;;;;;;;;;;22.20;88.25;99545.19;5012510;28;990;-61
2021/08/05 00:34:44;;;;;;;;;;;;;;;22.22;88.05;99545.50;5012491;28;906;-61
2021/08/05 00:37:10;;;;;;;;;;;;;;;22.22;87.83;99539.09;5012358;28;1953;-61
2021/08/05 00:39:37;;;;;;;;;;;;;;;22.19;87.89;99546.47;5012361;28;866;-61
2021/08/05 00:42:04;;;;;;;;;;;;;;;22.17;87.86;99542.59;5012533;28;859;-61
2021/08/05 00:44:30;;;;;;;;;;;;;;;22.14;88.32;99535.88;5012269;28;846;-61
2021/08/05 00:46:57;;;;;;;;;;;;;;;22.16;88.36;99543.84;5010971;28;1335;-61
2021/08/05 00:49:25;;;;;;;;;;;;;;;22.21;88.61;99543.16;5012274;28;822;-62
2021/08/05 00:51:51;;;;;;;;;;;;;;;22.27;88.47;99540.47;5011706;28;905;-62
2021/08/05 00:54:18;;;;;;;;;;;;;;;22.30;88.24;99545.88;5012000;28;866;-61
2021/08/05 00:56:45;;;;;;;;;;;;;;;22.32;88.17;99534.13;5012076;28;1894;-62
2021/08/05 00:59:11;;;;;;;;;;;;;;;22.29;88.33;99537.94;5012124;28;908;-62
2021/08/05 01:01:39;;;;;;;;;;;;;;;22.25;88.10;99531.72;5012027;28;858;-61
2021/08/05 01:04:08;;;;;;;;;;;;;;;22.21;88.19;99534.69;5012106;28;819;-61
2021/08/05 01:06:42;;;;;;;;;;;;;;;22.16;88.26;99529.78;5011929;28;838;-61
2021/08/05 01:09:15;;;;;;;;;;;;;;;22.13;88.45;99534.34;5011984;28;830;-61
2021/08/05 01:11:44;;;;;;;;;;;;;;;22.13;88.57;99527.97;5012766;28;909;-61
2021/08/05 01:14:14;;;;;;;;;;;;;;;22.06;88.24;99523.47;5012022;28;974;-61
2021/08/05 01:16:43;;;;;;;;;;;;;;;22.02;88.61;99520.13;5010265;28;1983;-61
2021/08/05 01:19:17;;;;;;;;;;;;;;;21.97;88.53;99523.59;5011788;28;830;-61
2021/08/05 01:21:48;;;;;;;;;;;;;;;21.96;88.94;99522.84;5011806;28;835;-61
2021/08/05 01:24:17;;;;;;;;;;;;;;;21.97;88.77;99513.13;5011657;28;807;-61
2021/08/05 01:26:47;;;;;;;;;;;;;;;21.99;89.03;99518.28;5010931;28;873;-61
2021/08/05 01:29:15;;;;;;;;;;;;;;;22.02;88.70;99518.06;5012053;28;828;-61
2021/08/05 01:31:42;;;;;;;;;;;;;;;22.11;88.85;99525.63;5011704;28;795;-61
2021/08/05 01:34:13;;;;;;;;;;;;;;;22.20;89.15;99522.69;5011801;28;854;-61
2021/08/05 01:36:41;;;;;;;;;;;;;;;22.25;88.51;99526.09;5011524;28;1882;-61
2021/08/05 01:39:08;;;;;;;;;;;;;;;22.25;88.73;99514.84;5011690;28;867;-61
2021/08/05 01:41:36;;;;;;;;;;;;;;;22.25;88.30;99512.03;5011837;28;826;-61
2021/08/05 01:44:06;;;;;;;;;;;;;;;22.23;88.60;99512.50;5011958;28;861;-61
2021/08/05 01:46:33;;;;;;;;;;;;;;;22.18;88.56;99508.31;5011595;28;814;-61
2021/08/05 01:49:01;;;;;;;;;;;;;;;22.15;88.86;99509.31;5011631;28;846;-61
2021/08/05 01:51:28;;;;;;;;;;;;;;;22.10;88.86;99503.59;5011507;28;873;-61
2021/08/05 01:53:56;;;;;;;;;;;;;;;22.01;88.55;99499.63;5011701;28;798;-61
2021/08/05 01:56:24;;;;;;;;;;;;;;;21.92;88.58;99504.63;5011403;28;1940;-61
2021/08/05 01:58:51;;;;;;;;;;;;;;;21.86;88.62;99498.13;5011499;28;885;-61
2021/08/05 02:01:18;;;;;;;;;;;;;;;21.84;88.88;99495.03;5011431;28;855;-61
2021/08/05 02:03:56;;;;;;;;;;;;;;;21.82;89.14;99495.50;5013253;28;1033;-61
2021/08/05 02:06:25;;;;;;;;;;;;;;;21.82;89.20;99496.28;5015252;28;874;-61
2021/08/05 02:08:57;;;;;;;;;;;;;;;21.87;89.58;99494.84;5015141;28;806;-61
2021/08/05 02:11:24;;;;;;;;;;;;;;;21.92;89.55;99491.31;5015391;28;855;-61
2021/08/05 02:13:51;;;;;;;;;;;;;;;21.93;89.41;99492.09;5015025;28;1017;-62
2021/08/05 02:16:19;;;;;;;;;;;;;;;21.95;89.11;99492.38;5014770;28;1902;-62
2021/08/05 02:18:49;;;;;;;;;;;;;;;21.95;89.45;99487.50;5014863;28;1144;-61
2021/08/05 02:21:16;;;;;;;;;;;;;;;21.94;89.27;99485.22;5014838;28;929;-61
2021/08/05 02:23:44;;;;;;;;;;;;;;;21.85;88.94;99486.09;5014800;28;819;-61
2021/08/05 02:26:10;;;;;;;;;;;;;;;21.78;89.09;99478.81;5015080;28;856;-61
2021/08/05 02:28:37;;;;;;;;;;;;;;;21.75;89.24;99488.25;5014781;28;795;-61
2021/08/05 02:31:07;;;;;;;;;;;;;;;21.73;89.00;99485.16;5014825;28;843;-61
2021/08/05 02:33:35;;;;;;;;;;;;;;;21.75;89.47;99493.88;5014679;28;838;-61
2021/08/05 02:36:03;;;;;;;;;;;;;;;21.78;89.07;99504.13;5015167;28;1992;-61
2021/08/05 02:38:29;;;;;;;;;;;;;;;21.77;89.26;99499.78;5015064;28;988;-62
2021/08/05 02:40:57;;;;;;;;;;;;;;;21.76;89.65;99489.81;5015253;28;842;-62
2021/08/05 02:43:25;;;;;;;;;;;;;;;21.76;89.78;99501.06;5014697;28;815;-62
2021/08/05 02:45:52;;;;;;;;;;;;;;;21.76;89.44;99498.25;5014654;28;874;-61
2021/08/05 02:48:19;;;;;;;;;;;;;;;21.79;89.89;99499.31;5014466;28;814;-62
2021/08/05 02:50:46;;;;;;;;;;;;;;;21.84;90.11;99500.66;5014517;28;819;-62
2021/08/05 02:53:14;;;;;;;;;;;;;;;21.89;89.81;99505.56;5014319;28;917;-62
2021/08/05 02:55:42;;;;;;;;;;;;;;;21.95;89.99;99509.25;5014175;28;1973;-61
2021/08/05 02:58:09;;;;;;;;;;;;;;;22.02;89.65;99504.00;5014335;28;869;-62
2021/08/05 03:00:36;;;;;;;;;;;;;;;22.08;89.63;99504.06;5014234;28;874;-61
2021/08/05 03:03:03;;;;;;;;;;;;;;;22.16;89.75;99508.03;5014139;28;831;-62
2021/08/05 03:05:30;;;;;;;;;;;;;;;22.22;89.67;99508.91;5014140;28;953;-62
2021/08/05 03:07:55;;;;;;;;;;;;;;;22.24;89.33;99510.50;5014073;28;839;-61
2021/08/05 03:10:22;;;;;;;;;;;;;;;22.21;89.08;99510.16;5014088;28;870;-62
2021/08/05 03:12:49;;;;;;;;;;;;;;;22.19;89.10;99509.09;5014292;28;803;-62
2021/08/05 03:15:15;;;;;;;;;;;;;;;22.20;89.39;99507.84;5013597;28;1342;-62
2021/08/05 03:17:42;;;;;;;;;;;;;;;22.18;89.30;99505.50;5014135;28;2023;-62
2021/08/05 03:20:08;;;;;;;;;;;;;;;22.20;89.10;99499.41;5014290;28;787;-62
2021/08/05 03:22:36;;;;;;;;;;;;;;;22.17;89.31;99498.34;5012879;28;2381;-61
2021/08/05 03:25:03;;;;;;;;;;;;;;;22.15;89.00;99498.06;5013999;28;827;-61
2021/08/05 03:27:29;;;;;;;;;;;;;;;22.12;89.37;99493.38;5013951;28;1021;-62
2021/08/05 03:29:56;;;;;;;;;;;;;;;22.12;89.41;99496.19;5013965;28;804;-61
2021/08/05 03:32:23;;;;;;;;;;;;;;;22.18;89.60;99494.25;5013980;28;1202;-62
2021/08/05 03:34:49;;;;;;;;;;;;;;;22.30;89.74;99489.59;5013825;28;838;-61
2021/08/05 03:37:16;;;;;;;;;;;;;;;22.39;89.35;99492.25;5013452;28;1949;-61
2021/08/05 03:39:43;;;;;;;;;;;;;;;22.50;89.53;99490.88;5013483;28;810;-62
2021/08/05 03:42:11;;;;;;;;;;;;;;;22.60;89.32;99493.03;5013330;28;823;-62
2021/08/05 03:44:38;;;;;;;;;;;;;;;22.72;89.33;99481.91;5013703;28;854;-62
2021/08/05 03:47:04;;;;;;;;;;;;;;;22.79;89.01;99478.69;5013631;28;830;-62
2021/08/05 03:49:30;;;;;;;;;;;;;;;22.83;89.13;99482.81;5013350;28;838;-62
2021/08/05 03:51:57;;;;;;;;;;;;;;;22.92;89.08;99476.25;5013058;28;870;-62
2021/08/05 03:54:24;;;;;;;;;;;;;;;23.06;88.79;99487.94;5013248;28;861;-61
2021/08/05 03:56:50;;;;;;;;;;;;;;;23.20;88.74;99490.66;5013094;28;1878;-61
2021/08/05 03:59:17;;;;;;;;;;;;;;;23.35;88.38;99487.72;5013081;28;830;-62
2021/08/05 04:01:43;;;;;;;;;;;;;;;23.55;88.27;99488.91;5013118;28;873;-62
2021/08/05 04:04:10;;;;;;;;;;;;;;;23.75;87.95;99491.66;5013014;28;1002;-61
2021/08/05 04:06:37;;;;;;;;;;;;;;;24.00;87.70;99490.06;5012937;28;819;-62
2021/08/05 04:09:04;;;;;;;;;;;;;;;24.36;87.00;99495.38;5012935;28;901;-61
2021/08/05 04:11:31;;;;;;;;;;;;;;;24.71;86.09;99491.44;5012919;28;905;-62
2021/08/05 04:13:57;;;;;;;;;;;;;;;24.94;85.11;99490.22;5012806;28;887;-62
2021/08/05 04:16:24;;;;;;;;;;;;;;;25.10;84.80;99490.81;5012480;28;1898;-62
2021/08/05 04:18:51;;;;;;;;;;;;;;;25.14;84.23;99483.59;5012743;28;862;-62
2021/08/05 04:21:16;;;;;;;;;;;;;;;25.17;84.04;99485.41;5012631;28;835;-61
2021/08/05 04:23:43;;;;;;;;;;;;;;;25.20;83.74;99486.47;5012634;28;866;-62
2021/08/05 04:26:10;;;;;;;;;;;;;;;25.21;82.87;99482.34;5011817;28;957;-62
2021/08/05 04:28:37;;;;;;;;;;;;;;;25.36;82.49;99480.06;5012559;28;807;-62
2021/08/05 04:31:03;;;;;;;;;;;;;;;25.46;81.54;99472.09;5012540;28;881;-62
2021/08/05 04:33:30;;;;;;;;;;;;;;;25.60;80.84;99470.28;5012519;28;819;-62
2021/08/05 04:35:57;;;;;;;;;;;;;;;25.86;80.12;99470.78;5012398;28;1941;-62
2021/08/05 04:38:24;;;;;;;;;;;;;;;26.05;79.42;99461.75;5012473;28;810;-62
2021/08/05 04:40:50;;;;;;;;;;;;;;;26.16;78.30;99461.75;5012467;28;886;-62
2021/08/05 04:43:17;;;;;;;;;;;;;;;26.27;77.62;99464.53;5012312;28;893;-62
2021/08/05 04:45:44;;;;;;;;;;;;;;;26.33;77.55;99458.88;5012289;28;858;-62
2021/08/05 04:48:11;;;;;;;;;;;;;;;26.38;77.20;99458.06;5012301;28;886;-62
2021/08/05 04:50:39;;;;;;;;;;;;;;;26.27;76.77;99464.53;5012374;28;882;-62
2021/08/05 04:53:05;;;;;;;;;;;;;;;26.02;76.70;99462.81;5012123;28;894;-62
2021/08/05 04:55:32;;;;;;;;;;;;;;;25.96;76.46;99470.53;5012207;28;1886;-62
2021/08/05 04:58:00;;;;;;;;;;;;;;;25.99;76.34;99458.16;5012237;28;913;-62
2021/08/05 05:00:30;;;;;;;;;;;;;;;26.08;75.69;99470.00;5012022;28;851;-62
2021/08/05 05:02:56;;;;;;;;;;;;;;;26.28;75.28;99468.13;5012250;28;835;-61
2021/08/05 05:05:26;;;;;;;;;;;;;;;26.49;74.31;99460.84;5012009;28;815;-61
2021/08/05 05:07:53;;;;;;;;;;;;;;;26.81;73.73;99454.78;5011776;28;850;-62
2021/08/05 05:15:29;;;;;;;;;;;;;;;27.39;71.54;99458.81;5315955;23;1890;-62
2021/08/05 05:17:56;;;;;;;;;;;;;;;27.42;70.93;99455.69;5011974;28;849;-62
2021/08/05 05:20:22;;;;;;;;;;;;;;;27.68;70.88;99458.03;5011848;28;814;-62
2021/08/05 05:22:49;;;;;;;;;;;;;;;28.16;68.99;99458.63;5011888;28;802;-62
2021/08/05 05:25:16;;;;;;;;;;;;;;;28.40;68.28;99454.22;5011904;28;858;-62
2021/08/05 05:27:43;;;;;;;;;;;;;;;28.85;67.46;99448.75;5011801;28;858;-62
2021/08/05 05:30:11;;;;;;;;;;;;;;;29.30;65.36;99447.31;5011725;28;811;-62
2021/08/05 05:32:37;;;;;;;;;;;;;;;29.65;64.56;99451.13;5010409;28;1365;-63
2021/08/05 05:35:04;;;;;;;;;;;;;;;29.93;63.30;99448.56;5011762;28;807;-62
2021/08/05 05:37:31;;;;;;;;;;;;;;;30.23;62.59;99441.00;5013194;28;1878;-62
2021/08/05 05:39:56;;;;;;;;;;;;;;;30.26;62.57;99448.47;5015425;28;835;-63
2021/08/05 05:42:23;;;;;;;;;;;;;;;30.51;61.88;99449.78;5015857;28;873;-62
2021/08/05 05:44:49;;;;;;;;;;;;;;;30.92;60.86;99437.00;5015602;28;869;-62
2021/08/05 05:47:16;;;;;;;;;;;;;;;31.19;58.49;99436.09;5015479;28;858;-62
2021/08/05 05:49:43;;;;;;;;;;;;;;;31.21;59.11;99437.06;5015685;28;901;-62
2021/08/05 05:52:10;;;;;;;;;;;;;;;31.70;58.00;99438.47;5015490;28;874;-62
2021/08/05 05:54:37;;;;;;;;;;;;;;;32.45;55.34;99428.09;5015515;28;961;-63
2021/08/05 05:57:04;;;;;;;;;;;;;;;32.73;55.25;99433.00;5015391;28;1882;-63
2021/08/05 05:59:31;;;;;;;;;;;;;;;33.10;53.64;99430.84;5015328;28;814;-62
2021/08/05 06:01:57;;;;;;;;;;;;;;;33.28;52.91;99436.78;5015619;28;863;-62
2021/08/05 06:04:24;;;;;;;;;;;;;;;33.82;51.71;99428.97;5015496;28;853;-63
2021/08/05 06:06:51;;;;;;;;;;;;;;;34.18;50.32;99433.69;5015393;28;814;-63
2021/08/05 06:09:18;;;;;;;;;;;;;;;34.60;49.98;99426.66;5015261;28;869;-63
2021/08/05 06:11:44;;;;;;;;;;;;;;;34.95;48.78;99431.28;5015257;28;803;-63
2021/08/05 06:14:11;;;;;;;;;;;;;;;35.32;47.45;99433.75;5015214;28;946;-62
2021/08/05 06:16:38;;;;;;;;;;;;;;;35.57;47.16;99428.75;5015088;28;1981;-63
2021/08/05 06:19:04;;;;;;;;;;;;;;;35.93;45.86;99420.97;5015729;28;940;-63
2021/08/05 06:21:31;;;;;;;;;;;;;;;36.20;45.03;99426.09;5015126;28;1242;-63
2021/08/05 06:23:57;;;;;;;;;;;;;;;36.11;45.44;99424.63;5015245;28;838;-63
2021/08/05 06:26:25;;;;;;;;;;;;;;;36.07;44.25;99425.03;5014909;28;893;-63
2021/08/05 06:28:52;;;;;;;;;;;;;;;36.07;44.14;99416.41;5015172;28;798;-63
2021/08/05 06:31:19;;;;;;;;;;;;;;;36.50;43.87;99413.44;5014779;28;834;-63
2021/08/05 06:33:47;;;;;;;;;;;;;;;37.09;42.11;99414.56;5015316;28;767;-63
2021/08/05 06:36:14;;;;;;;;;;;;;;;37.11;41.91;99421.28;5014850;28;1960;-63
2021/08/05 06:38:41;;;;;;;;;;;;;;;37.14;41.60;99416.44;5014898;28;873;-63
2021/08/05 06:41:08;;;;;;;;;;;;;;;37.00;41.19;99421.81;5014740;28;807;-63
2021/08/05 06:43:34;;;;;;;;;;;;;;;36.92;40.90;99421.16;5014899;28;824;-63
2021/08/05 06:46:01;;;;;;;;;;;;;;;36.87;41.23;99420.06;5014999;28;838;-63
2021/08/05 06:48:28;;;;;;;;;;;;;;;37.09;40.53;99421.13;5014046;28;1323;-62
2021/08/05 06:50:55;;;;;;;;;;;;;;;37.04;40.60;99422.13;5014534;28;1154;-63
2021/08/05 06:53:21;;;;;;;;;;;;;;;37.32;39.94;99417.09;5014433;28;1203;-63
2021/08/05 06:55:48;;;;;;;;;;;;;;;37.64;39.49;99421.81;5014347;28;1902;-63
2021/08/05 06:58:19;;;;;;;;;;;;;;;38.11;38.74;99422.50;5014397;28;835;-63
2021/08/05 07:00:49;;;;;;;;;;;;;;;37.94;37.09;99423.38;5014211;28;823;-63
2021/08/05 07:03:15;;;;;;;;;;;;;;;38.09;37.52;99433.09;5014174;28;835;-63
2021/08/05 07:05:42;;;;;;;;;;;;;;;38.57;36.66;99421.56;5014155;28;854;-63
2021/08/05 07:08:09;;;;;;;;;;;;;;;38.46;36.54;99422.16;5014539;28;790;-63
2021/08/05 07:10:36;;;;;;;;;;;;;;;38.47;36.65;99420.78;5014121;28;877;-63
2021/08/05 07:13:03;;;;;;;;;;;;;;;38.66;35.66;99425.06;5014114;28;814;-62
2021/08/05 07:15:29;;;;;;;;;;;;;;;38.70;35.96;99417.44;5013646;28;1930;-63
2021/08/05 07:17:56;;;;;;;;;;;;;;;38.78;35.77;99417.28;5013843;28;858;-63
2021/08/05 07:20:23;;;;;;;;;;;;;;;38.93;35.51;99413.28;5013699;28;866;-63
2021/08/05 07:22:50;;;;;;;;;;;;;;;38.67;35.54;99418.69;5013819;28;826;-63
2021/08/05 07:25:16;;;;;;;;;;;;;;;38.72;35.59;99411.06;5013819;28;909;-63
2021/08/05 07:27:44;;;;;;;;;;;;;;;39.23;35.13;99406.03;5013755;28;810;-63
2021/08/05 07:30:12;;;;;;;;;;;;;;;39.42;35.15;99402.34;5013736;28;857;-63
2021/08/05 07:32:39;;;;;;;;;;;;;;;39.34;34.86;99393.81;5013666;28;865;-63
2021/08/05 07:35:06;;;;;;;;;;;;;;;39.65;34.38;99390.19;5013646;28;810;-63
2021/08/05 07:37:32;;;;;;;;;;;;;;;40.00;34.25;99387.50;5013518;28;1978;-63
2021/08/05 07:39:59;;;;;;;;;;;;;;;40.04;33.75;99392.81;5013506;28;811;-62
2021/08/05 07:42:26;;;;;;;;;;;;;;;39.96;33.84;99386.47;5013349;28;815;-62
2021/08/05 07:44:53;;;;;;;;;;;;;;;39.86;34.02;99380.78;5013412;28;877;-63
2021/08/05 07:47:19;;;;;;;;;;;;;;;39.95;33.21;99379.94;5013345;28;877;-62
2021/08/05 07:49:46;;;;;;;;;;;;;;;40.18;32.63;99382.19;5013312;28;874;-63
2021/08/05 07:52:12;;;;;;;;;;;;;;;39.80;33.43;99375.31;5013383;28;830;-63
2021/08/05 07:54:40;;;;;;;;;;;;;;;40.00;32.62;99375.16;5013233;28;834;-63
2021/08/05 07:57:06;;;;;;;;;;;;;;;39.91;33.00;99364.44;5013217;28;1898;-63
2021/08/05 07:59:33;;;;;;;;;;;;;;;39.73;33.49;99369.72;5013339;28;983;-63
2021/08/05 08:01:59;;;;;;;;;;;;;;;39.75;32.91;99372.75;5013340;28;818;-62
2021/08/05 08:04:26;;;;;;;;;;;;;;;39.91;32.96;99370.22;5013404;28;811;-63
2021/08/05 08:06:53;;;;;;;;;;;;;;;40.29;31.80;99369.16;5013661;28;771;-63
2021/08/05 08:09:19;;;;;;;;;;;;;;;40.08;32.30;99364.13;5013233;28;795;-63
2021/08/05 08:11:46;;;;;;;;;;;;;;;40.26;31.71;99370.38;5012936;28;866;-63
2021/08/05 08:14:13;;;;;;;;;;;;;;;40.44;31.47;99370.06;5013234;28;984;-62
2021/08/05 08:16:40;;;;;;;;;;;;;;;40.28;31.95;99358.94;5012551;28;1935;-63
2021/08/05 08:19:07;;;;;;;;;;;;;;;39.94;32.46;99358.16;5012999;28;810;-63
2021/08/05 08:21:34;;;;;;;;;;;;;;;40.12;31.61;99352.84;5013116;28;787;-63
2021/08/05 08:24:00;;;;;;;;;;;;;;;40.07;31.75;99351.03;5012980;28;869;-62
2021/08/05 08:26:27;;;;;;;;;;;;;;;39.83;31.75;99347.25;5012881;28;846;-63
2021/08/05 08:28:54;;;;;;;;;;;;;;;39.74;31.34;99348.84;5012604;28;1024;-63
2021/08/05 08:31:21;;;;;;;;;;;;;;;39.88;31.40;99337.53;5012642;28;827;-63
2021/08/05 08:33:47;;;;;;;;;;;;;;;40.13;30.76;99339.13;5012499;28;799;-63
2021/08/05 08:36:14;;;;;;;;;;;;;;;39.74;31.25;99342.31;5012581;28;1890;-63
2021/08/05 08:38:43;;;;;;;;;;;;;;;39.53;28.47;99331.53;5012449;28;818;-63
2021/08/05 08:41:12;;;;;;;;;;;;;;;39.40;29.52;99330.69;5012962;28;838;-63
2021/08/05 08:43:38;;;;;;;;;;;;;;;39.69;29.19;99334.72;5012488;28;850;-62
2021/08/05 08:46:06;;;;;;;;;;;;;;;39.49;30.06;99323.31;5012646;28;960;-63
2021/08/05 08:48:33;;;;;;;;;;;;;;;39.40;27.39;99316.22;5012477;28;853;-63
2021/08/05 08:51:01;;;;;;;;;;;;;;;39.63;27.08;99320.66;5012433;28;906;-64
2021/08/05 08:53:31;;;;;;;;;;;;;;;39.96;26.72;99309.09;5012281;28;869;-63
2021/08/05 08:55:58;;;;;;;;;;;;;;;40.03;27.77;99313.16;5012399;28;1890;-62
2021/08/05 08:58:24;;;;;;;;;;;;;;;39.89;27.42;99315.88;5012183;28;830;-63
2021/08/05 09:00:51;;;;;;;;;;;;;;;40.11;27.07;99315.84;5012209;28;833;-63
2021/08/05 09:03:18;;;;;;;;;;;;;;;40.39;25.14;99311.94;5012116;28;881;-63
2021/08/05 09:05:44;;;;;;;;;;;;;;;40.18;25.96;99303.25;5012065;28;826;-63
2021/08/05 09:08:11;;;;;;;;;;;;;;;40.46;24.96;99309.41;5011983;28;853;-63
2021/08/05 09:10:38;;;;;;;;;;;;;;;40.03;25.42;99298.69;5011929;28;842;-62
2021/08/05 09:13:05;;;;;;;;;;;;;;;39.99;26.15;99298.44;5011593;28;822;-62
2021/08/05 09:15:42;;;;;;;;;;;;;;;40.14;26.31;99309.56;5011803;28;1918;-62
2021/08/05 09:18:27;;;;;;;;;;;;;;;39.90;26.23;99307.97;5011925;28;881;-62
2021/08/05 09:21:32;;;;;;;;;;;;;;;40.01;26.68;99290.66;5011884;28;957;-62
2021/08/05 09:24:01;;;;;;;;;;;;;;;40.35;25.97;99284.84;4951418;29;1384;-62
2021/08/05 09:26:30;;;;;;;;;;;;;;;40.08;26.21;99279.47;4951385;29;994;-62
2021/08/05 09:29:04;;;;;;;;;;;;;;;39.73;25.78;99280.84;4951415;29;899;-62
2021/08/05 09:31:31;;;;;;;;;;;;;;;39.32;26.46;99265.75;4951307;29;1054;-62
2021/08/05 09:34:07;;;;;;;;;;;;;;;39.41;25.99;99259.16;4951535;29;843;-62
2021/08/05 09:36:34;;;;;;;;;;;;;;;39.39;26.84;99259.81;4951263;29;1973;-62
2021/08/05 09:39:01;;;;;;;;;;;;;;;39.27;27.20;99253.16;4951330;29;1000;-62
2021/08/05 09:41:27;;;;;;;;;;;;;;;39.18;26.67;99251.13;4951530;29;875;-62
2021/08/05 09:44:03;;;;;;;;;;;;;;;39.03;27.20;99243.59;4951222;29;990;-63
2021/08/05 09:46:31;;;;;;;;;;;;;;;39.05;27.52;99243.75;4951202;29;863;-63
2021/08/05 09:48:57;;;;;;;;;;;;;;;39.13;26.96;99244.28;4951275;29;911;-62
2021/08/05 09:51:23;;;;;;;;;;;;;;;38.93;27.53;99234.97;4951196;29;1072;-62
2021/08/05 09:54:05;;;;;;;;;;;;;;;38.92;27.99;99233.47;4951148;29;843;-62
2021/08/05 09:56:34;;;;;;;;;;;;;;;38.79;27.80;99228.19;4951192;29;1962;-62
2021/08/05 09:59:06;;;;;;;;;;;;;;;38.80;26.62;99224.69;5009698;28;928;-63
2021/08/05 10:01:32;;;;;;;;;;;;;;;38.46;26.99;99231.69;5011514;28;853;-62
2021/08/05 10:04:06;;;;;;;;;;;;;;;38.20;28.28;99219.78;5011463;28;882;-62
2021/08/05 10:06:53;;;;;;;;;;;;;;;38.19;27.18;99217.50;5011458;28;897;-63
2021/08/05 10:09:19;;;;;;;;;;;;;;;38.15;28.13;99220.09;5011228;28;1860;-61
2021/08/05 10:11:46;;;;;;;;;;;;;;;38.09;27.41;99217.53;5011427;28;787;-62
2021/08/05 10:14:22;;;;;;;;;;;;;;;37.88;27.17;99212.38;5010139;28;2592;-62
2021/08/05 10:16:50;;;;;;;;;;;;;;;37.66;27.68;99208.63;5011054;28;1983;-62
2021/08/05 10:19:18;;;;;;;;;;;;;;;37.96;27.94;99200.66;5011387;28;799;-62
2021/08/05 10:21:47;;;;;;;;;;;;;;;38.27;27.33;99203.66;5011299;28;807;-61
2021/08/05 10:24:15;;;;;;;;;;;;;;;38.49;27.18;99201.59;5012276;28;882;-62
2021/08/05 10:26:44;;;;;;;;;;;;;;;38.63;26.54;99201.09;5015157;28;850;-63
2021/08/05 10:29:14;;;;;;;;;;;;;;;38.65;26.48;99196.22;5014817;28;973;-62
2021/08/05 10:31:44;;;;;;;;;;;;;;;38.59;26.06;99192.91;5014731;28;873;-62
2021/08/05 10:34:12;;;;;;;;;;;;;;;38.53;26.18;99184.56;5014802;28;905;-62
2021/08/05 10:36:39;;;;;;;;;;;;;;;38.41;26.42;99183.72;5014611;28;2008;-62
2021/08/05 10:39:05;;;;;;;;;;;;;;;38.36;25.84;99176.88;5014619;28;869;-62
2021/08/05 10:41:33;;;;;;;;;;;;;;;38.29;26.60;99177.81;5014613;28;901;-62
2021/08/05 10:44:02;;;;;;;;;;;;;;;38.57;26.25;99172.56;5014577;28;799;-62
2021/08/05 10:46:36;;;;;;;;;;;;;;;38.63;26.14;99167.22;5014796;28;798;-62
2021/08/05 10:49:04;;;;;;;;;;;;;;;38.77;25.37;99167.41;5014411;28;902;-62
2021/08/05 10:51:40;;;;;;;;;;;;;;;38.65;25.67;99158.69;5014494;28;803;-62
2021/08/05 10:54:08;;;;;;;;;;;;;;;38.83;25.56;99159.16;5014355;28;886;-62
2021/08/05 10:56:35;;;;;;;;;;;;;;;39.07;25.64;99153.56;5014379;28;1874;-63
2021/08/05 10:59:05;;;;;;;;;;;;;;;39.03;25.78;99138.84;5014263;28;865;-62
2021/08/05 11:01:45;;;;;;;;;;;;;;;39.20;25.24;99139.31;5014528;28;829;-62
2021/08/05 11:04:30;;;;;;;;;;;;;;;39.16;24.59;99144.06;5014380;28;807;-62
2021/08/05 11:07:17;;;;;;;;;;;;;;;39.16;24.68;99130.38;5014109;28;892;-63
2021/08/05 11:09:43;;;;;;;;;;;;;;;38.99;24.13;99125.66;5013991;28;1478;-63
2021/08/05 11:12:29;;;;;;;;;;;;;;;38.85;25.02;99118.88;5014038;28;814;-62
2021/08/05 11:14:56;;;;;;;;;;;;;;;39.21;24.52;99114.81;5013932;28;1201;-62
2021/08/05 11:17:22;;;;;;;;;;;;;;;39.40;25.21;99110.25;5013908;28;1918;-61
2021/08/05 11:20:09;;;;;;;;;;;;;;;39.38;23.63;99107.22;5014167;28;968;-63
2021/08/05 11:22:35;;;;;;;;;;;;;;;39.08;23.97;99106.72;5013841;28;1456;-63
2021/08/05 11:25:01;;;;;;;;;;;;;;;39.15;24.02;99091.28;5014017;28;861;-62
2021/08/05 11:27:28;;;;;;;;;;;;;;;39.33;24.71;99094.63;5014015;28;854;-62
2021/08/05 11:29:54;;;;;;;;;;;;;;;39.59;22.83;99086.94;5013692;28;831;-62
2021/08/05 11:32:24;;;;;;;;;;;;;;;39.65;23.46;99082.91;5014093;28;874;-63
2021/08/05 11:34:57;;;;;;;;;;;;;;;39.70;23.36;99079.66;5013237;28;934;-63
2021/08/05 11:37:24;;;;;;;;;;;;;;;39.63;23.94;99074.13;5013451;28;1894;-62
2021/08/05 11:39:52;;;;;;;;;;;;;;;39.88;24.33;99059.84;5013609;28;878;-62
2021/08/05 11:42:19;;;;;;;;;;;;;;;40.18;24.31;99054.41;5013761;28;819;-63
2021/08/05 11:44:51;;;;;;;;;;;;;;;40.07;25.13;99055.91;5013686;28;811;-64
2021/08/05 11:47:20;;;;;;;;;;;;;;;39.76;26.06;99053.25;5013384;28;815;-63
2021/08/05 11:49:47;;;;;;;;;;;;;;;39.64;27.31;99035.16;5013322;28;791;-62
2021/08/05 11:52:15;;;;;;;;;;;;;;;39.54;27.57;99043.91;5013250;28;779;-63
2021/08/05 11:54:49;;;;;;;;;;;;;;;39.47;27.85;99037.00;5013239;28;834;-62
2021/08/05 11:57:17;;;;;;;;;;;;;;;39.34;27.92;99032.56;5011723;28;1898;-63
2021/08/05 11:59:50;;;;;;;;;;;;;;;39.40;27.60;99021.41;5013226;28;877;-63
2021/08/05 12:02:18;;;;;;;;;;;;;;;39.53;27.13;99025.81;5013125;28;818;-63
2021/08/05 12:04:45;;;;;;;;;;;;;;;39.40;28.47;99027.19;5013103;28;853;-63
2021/08/05 12:07:29;;;;;;;;;;;;;;;39.58;28.85;99007.38;5012989;28;894;-64
2021/08/05 12:10:04;;;;;;;;;;;;;;;39.56;29.68;99023.81;5012859;28;902;-63
2021/08/05 12:12:39;;;;;;;;;;;;;;;39.73;28.82;99026.38;5012882;28;862;-62
2021/08/05 12:15:06;;;;;;;;;;;;;;;39.88;28.17;99036.72;5012797;28;1208;-62
2021/08/05 12:17:34;;;;;;;;;;;;;;;39.93;28.69;99020.34;5011543;28;1922;-63
2021/08/05 12:20:27;;;;;;;;;;;;;;;39.73;30.45;99034.25;5012852;28;831;-63
2021/08/05 12:22:56;;;;;;;;;;;;;;;39.37;29.40;99033.47;5012704;28;869;-63
2021/08/05 12:25:24;;;;;;;;;;;;;;;39.46;30.29;99029.72;5012728;28;873;-62
2021/08/05 12:27:54;;;;;;;;;;;;;;;39.41;30.46;99027.94;5012687;28;881;-63
2021/08/05 12:30:21;;;;;;;;;;;;;;;39.75;30.26;99025.72;5012634;28;881;-63
2021/08/05 12:33:00;;;;;;;;;;;;;;;40.14;29.16;99025.25;5012610;28;858;-63
2021/08/05 12:35:27;;;;;;;;;;;;;;;39.95;29.43;99015.44;5012456;28;870;-63
2021/08/05 12:38:03;;;;;;;;;;;;;;;39.75;30.72;99017.03;5012353;28;1898;-64
2021/08/05 12:40:30;;;;;;;;;;;;;;;39.85;30.55;99019.84;5012355;28;838;-63
2021/08/05 12:42:58;;;;;;;;;;;;;;;39.52;30.66;99012.78;5012428;28;897;-63
2021/08/05 12:45:25;;;;;;;;;;;;;;;39.16;31.03;99006.13;5012549;28;878;-63
2021/08/05 12:47:52;;;;;;;;;;;;;;;39.24;31.03;99014.56;5011661;28;921;-62
2021/08/05 12:50:19;;;;;;;;;;;;;;;39.08;31.26;99007.75;5012240;28;838;-62
2021/08/05 12:52:45;;;;;;;;;;;;;;;38.78;32.58;99013.00;5012272;28;787;-63
2021/08/05 12:55:12;;;;;;;;;;;;;;;38.69;32.37;99000.19;5012216;28;850;-63
2021/08/05 12:57:39;;;;;;;;;;;;;;;39.12;32.04;99008.75;5012140;28;1930;-64
2021/08/05 13:00:24;;;;;;;;;;;;;;;39.31;31.95;99002.03;5012153;28;834;-64
2021/08/05 13:03:01;;;;;;;;;;;;;;;39.21;31.97;98990.56;5012111;28;842;-64
2021/08/05 13:05:28;;;;;;;;;;;;;;;38.93;32.06;98992.34;5012031;28;795;-63
2021/08/05 13:07:55;;;;;;;;;;;;;;;38.69;32.62;98994.41;5011956;28;850;-62
2021/08/05 13:10:28;;;;;;;;;;;;;;;38.64;32.34;98981.06;5012121;28;918;-63
2021/08/05 13:12:55;;;;;;;;;;;;;;;38.83;32.78;98985.16;5010721;28;842;-63
2021/08/05 13:15:29;;;;;;;;;;;;;;;39.01;31.82;98977.72;5011811;28;1350;-62